Timeline UpdatesTrip UpdatesNews PostsPvt PostsTravel TipsAdmin PostsConv PostsFollowed PostsChat RequestsBlog PostsPNR Posts

Disclaimer
Search
 
 
Tue Sep 30, 2014 17:20:36 ISTHomeTrainsΣChainsAtlasPNRForumGalleryNewsFAQTripsMembersLoginFeedback
Latest...
...
Sun Aug 10, 2014 (10:19PM)
⇐ Return Journey: Train# 57135

57136/Kazipet-Ajni Passenger (UnReserved)

Time-Table HAS CHANGED.
Sep 04 (4:17AM)
Change Departure Station:
Change Arrival Station:
Post a Train Travel TipPost a Train Travel Tip **new
Post a Comment/Question/Picture/VideoPost a Comment/Question/Picture/Video
Pantry/Catering
✕ NO Pantry Car
✕ NO Catering
RSA - Rake Sharing
Rake/Coach Composition
Loco
AJNI/KZJ WAG 7
News    PNR    Forum    Time-Table    Availability    Fare Chart    Map    Arr/Dep History    Trips    Gallery    ΣChains    X/O    Timeline    
Travel Time: 7h 44m    28 halts    Distance: 272 km    Avg Speed: 35 km/hr
Type: Passenger
Zone: SCR/South Central
Departs @ 21:15 (Avg 5m late)
Platform# 3
SMTWTFS
Kazipet Junction/KZJ 
Arrives @ 04:59 +1 night (Avg 1h 4m late)
Platform# ???
SMTWTFS
Bhandak/BUX 

28 halts. 38 intermediate Stations between Kazipet Junction and Bhandak

Show ALL intermediate Stations  Show Old Time-Table

#CodeStation NameX/OArrivesAvgDepartsAvgHaltPFDay#KmSpeedElevZoneAddress
1KZJKazipet Junction (3)»  -21:15+5310.051292mSCRWarangal Dist., Telangana
2HSPHasanparthi Road (3)  21:29+3221:30+331m1111.979262mSCRWarangal Dist., Telangana
3OPLUppal (2)X  21:39+2621:40+281m2123.779251mSCRKarimnagar Dist., Telangana
4JMKTJamikunta (2)X  21:49+3021:50+331m1135.697236mSCRKarimnagar Dist., Telangana
5BGSFBisugir Sharif (2)X  21:54+5421:55+551m2142.170227mSCRKarimnagar Dist., Telangana
6PTKPPotkapalli (2)X  22:04+5622:05+1:091m--152.662219mSCRKarimnagar Dist., Telangana
7OEAOdela (2)X  22:09-22:10-1m--156.731231mSCRKarimnagar Dist., Telangana
8KOLRKolanoor (2)  22:19+1:0522:20+1:121m--161.3-223mSCRKarimnagar Dist., Telangana
9KYOPKottapally  22:22-22:25-3m--166.557212mSCRKottapalli. Karimnagar Dist., Telangana
10PDPLPeddapalli Junction (2)  22:34+5222:35+541m1175.152228mSCRKarimnagar Dist., Telangana
11RGPMRaghavapuram (2)  22:44+1:2122:45+1:221m--182.842216mSCRKarimnagar Dist., Telangana
12RDMRamagundam (3)  22:59+4723:00+481m1192.631170mSCRKarimnagar Dist. Ph : 08728 - 255237, Telangana
13PPZPeddampet (2)  23:09+1:2523:10+1:261m2197.360155mSCRKarimnagar Dist., Telangana
14MCIManchiryal (3)X  23:19+4923:20+521m11106.344159mSCRAdilabad Dist., Telangana
15RVKHRavindrakhani (2)  23:29-23:30-1m21112.925169mSCRAdilabad Dist., Telangana
16MMZMandamari (4)  23:39+1:3123:40+1:381m11116.724176mSCRAdilabad Dist., Telangana
17BPABellampalli (3)X  00:04+1:2900:05+1:321m12126.269205mSCRTel:.08735 223298, Telangana
18RECHRechni Road (2)X  00:14+1:2800:15+1:301m22136.592250mSCRAdilabad Dist., Telangana
19ASAFAsifabad Road (2)  00:24+1:2600:25+1:301m12150.434210mSCRAdilabad Dist., Telangana
20SKZRSirpur Kaghaznagar (3)  00:50+1:0700:55+1:045m12164.745181mSCRAdilabad Dist., Telangana
21SRURSirpur Town (2)  01:19+1:3001:20+1:411m22182.676187mSCRAdilabad Dist., Telangana
22MKDIMakudi (2)  01:29+1:4401:30+1:441m22194.086179mSCRMakudi, Maharashtra
23WIRRWirurX  01:39+1:3101:40+1:311m--2206.930182mSCRChandrapur, Maharashtra
24VHGNWihirgaon (2)X  01:59+1:2402:00+1:241m22216.318193mSCRPIN - 442905, Maharashtra
25MAGHManikgarh (2)X  02:29+4002:30+421m12224.98184mSCRRajura Taluk, Maharashtra
26BPQBalharshah Junction (5)XO  03:40+2804:10 04:00+3430 20m--2234.437188mCRBallarpur. Ph : 07172 - 240341, Maharashtra
27BUPHBabupeth (2)  04:15+5304:16+541m--2243.738196mCRChandrapur, Maharashtra
28CDChandrapur Maharashtra (3)  04:23+4404:24+461m--2248.238194mCRChandrapur 442401, Maharashtra
29TAETadaliXO  04:47+1:0204:48+1:051m--2262.952207mCRTadali, Maharashtra
30BUXBhandak (5)•  04:59+1:0405:00+1:061m--2272.565207mCRChandrapur, Maharashtra
31MJRIMajri Junction (3)O  05:09+1:1105:10+1:161m--2282.253198mCRDist. Chandrapur, Maharashtra
32WRRWarora (2)  05:24+1:1605:25+1:191m--2294.670214mCRWarora, Maharashtra
33CKNIChikni Road (2)  05:34+1:2105:35+1:211m--2305.150211mCRChandrapur, Maharashtra
34HGTHinganghat (3)X  06:09+1:2306:10+1:261m--2333.752228mCRHinganghat, Maharashtra
35WGWagholi (2)XO  06:19+1:3206:20+1:331m--2341.556238mCRWagholi, Maharashtra
36SNNSonegaon (2)XO  06:29+1:3306:30+1:331m--2349.943262mCRWardha, Maharashtra
37BPKBhugaon (3)X  06:39+1:3206:40+1:411m--2356.447267mCRWardha, Maharashtra
38CHJCChitoda  06:49+1:4106:50+1:411m--2363.524265mCRChitoda, Maharashtra
39SEGMSewagram Junction (5)  06:58+1:1607:00+1:202m--2366.869279mCRWardha, Maharashtra
40VADRWarudX  07:03-07:07-4m--2370.267261mCRSewagram, Maharashtra
41SLORSeloo RoadX  07:14+1:5307:15+2:031m--2378.143256mCRMSH3, Maharashtra
42TGPTuljapur (2)O  07:29+2:0107:30+2:081m--2388.120259mCRTuljapur, Maharashtra
43SNISindi (2)X  07:54+1:5607:55+1:571m--2396.177258mCRWardha, Maharashtra
44BOKBorkhedi  08:04+1:4808:05+1:511m--2407.634268mCRWardha, Maharashtra
45BTBRButi Bori (4)  08:19+1:4808:20+1:531m--2415.458269mCRButi Bori, Maharashtra
46GMGGumgaon (2)X  08:29+1:5408:30+1:571m--2424.144302mCRNagpur, Maharashtra
47KRIKhapri (2)  08:39+1:5808:40+2:091m--2430.73312mCRNagpur, Maharashtra
48AJNIAjni (3)  11:25+11---2440.0-310mCRNagpur 440003, Maharashtra
Scroll to Top
Scroll to Bottom